Time;durP1;ratioP1;P1;durP2;ratioP2;P2;SDS_P1;SDS_P2;PMS_P1;PMS_P2;Temp;Humidity;BMP_temperature;BMP_pressure;BME280_temperature;BME280_humidity;BME280_pressure;Samples;Min_cycle;Max_cycle;Signal;HPM_P1;HPM_P2
2024/04/05 00:00:51;;;;;;;2.45;1.30;;;13.60;99.30;;;;;;5055317;28;20028;-77
2024/04/05 00:03:36;;;;;;;6.10;1.40;;;13.60;99.40;;;;;;5057654;28;20024;-78
2024/04/05 00:06:23;;;;;;;5.50;1.77;;;13.60;99.40;;;;;;5066301;28;20032;-77
2024/04/05 00:09:09;;;;;;;2.40;1.42;;;13.60;99.50;;;;;;5065401;28;20024;-77
2024/04/05 00:11:55;;;;;;;3.72;1.58;;;13.60;99.60;;;;;;5064785;28;20123;-78
2024/04/05 00:14:40;;;;;;;2.83;1.00;;;13.60;99.50;;;;;;5057408;28;20029;-77
2024/04/05 00:17:26;;;;;;;4.28;1.50;;;13.60;99.60;;;;;;5055985;28;20460;-78
2024/04/05 00:20:13;;;;;;;4.93;2.03;;;13.60;99.60;;;;;;5062375;28;20123;-78
2024/04/05 00:22:59;;;;;;;3.35;1.52;;;13.60;99.60;;;;;;5066665;28;20040;-78
2024/04/05 00:25:45;;;;;;;5.43;1.30;;;13.60;99.60;;;;;;5069823;28;20028;-78
2024/04/05 00:28:35;;;;;;;3.85;1.60;;;13.60;99.60;;;;;;5068267;28;20090;-78
2024/04/05 00:31:21;;;;;;;3.55;1.48;;;13.70;99.70;;;;;;5061765;28;20032;-77
2024/04/05 00:34:07;;;;;;;1.98;1.15;;;13.70;99.70;;;;;;5058410;28;20021;-78
2024/04/05 00:36:53;;;;;;;3.17;1.20;;;13.70;99.70;;;;;;5061688;28;20169;-78
2024/04/05 00:39:39;;;;;;;3.03;1.85;;;13.70;99.60;;;;;;5057764;28;20041;-78
2024/04/05 00:42:25;;;;;;;3.90;1.10;;;13.70;99.60;;;;;;5069268;28;20029;-74
2024/04/05 00:45:10;;;;;;;3.88;1.40;;;13.70;99.60;;;;;;5063336;28;20116;-74
2024/04/05 00:47:56;;;;;;;5.47;1.40;;;13.80;99.60;;;;;;5070070;28;20032;-74
2024/04/05 00:50:44;;;;;;;6.28;1.52;;;13.80;99.50;;;;;;5050406;28;20069;-75
2024/04/05 00:53:32;;;;;;;2.67;1.55;;;13.80;99.50;;;;;;5057360;28;20035;-74
2024/04/05 00:56:18;;;;;;;6.22;1.52;;;13.80;99.50;;;;;;5062602;28;20043;-74
2024/04/05 00:59:04;;;;;;;3.33;1.50;;;13.80;99.50;;;;;;5060420;28;20032;-74
2024/04/05 01:01:50;;;;;;;4.50;1.40;;;13.80;99.50;;;;;;5066740;28;20467;-74
2024/04/05 01:04:36;;;;;;;3.97;1.80;;;13.70;99.50;;;;;;5053651;28;20163;-74
2024/04/05 01:07:22;;;;;;;2.30;1.20;;;13.70;99.50;;;;;;5065576;28;20028;-74
2024/04/05 01:10:08;;;;;;;4.70;1.88;;;13.70;99.50;;;;;;5053887;28;20094;-75
2024/04/05 01:13:05;;;;;;;5.45;1.90;;;13.70;99.50;;;;;;5062652;28;20032;-75
2024/04/05 01:15:51;;;;;;;4.30;1.60;;;13.60;99.40;;;;;;5050462;28;20064;-74
2024/04/05 01:18:37;;;;;;;3.03;1.58;;;13.60;99.40;;;;;;5060402;28;20124;-76
2024/04/05 01:21:24;;;;;;;6.53;1.95;;;13.60;99.50;;;;;;5065862;28;20029;-76
2024/04/05 01:24:11;;;;;;;3.13;1.30;;;13.60;99.50;;;;;;5054030;28;20476;-76
2024/04/05 01:26:57;;;;;;;8.00;2.38;;;13.50;99.50;;;;;;5055745;28;20500;-76
2024/04/05 01:29:43;;;;;;;10.13;1.92;;;13.50;99.70;;;;;;5063049;28;20032;-76
2024/04/05 01:32:29;;;;;;;3.05;1.40;;;13.50;99.50;;;;;;5067810;28;20162;-76
2024/04/05 01:35:15;;;;;;;3.40;1.40;;;13.50;99.60;;;;;;5052794;28;20055;-76
2024/04/05 01:38:01;;;;;;;3.35;1.63;;;13.40;99.60;;;;;;5065243;28;20471;-76
2024/04/05 01:40:47;;;;;;;3.53;1.70;;;13.40;99.70;;;;;;5068938;28;20063;-76
2024/04/05 01:43:32;;;;;;;4.20;1.45;;;13.40;99.70;;;;;;5049331;28;20028;-75
2024/04/05 01:46:18;;;;;;;3.50;1.73;;;13.40;99.70;;;;;;5053498;28;20033;-76
2024/04/05 01:49:04;;;;;;;2.50;1.27;;;13.30;99.90;;;;;;5052770;28;20039;-76
2024/04/05 01:51:50;;;;;;;3.08;1.75;;;13.30;99.90;;;;;;5068319;28;20032;-74
2024/04/05 01:54:36;;;;;;;4.45;1.92;;;13.30;99.90;;;;;;5076529;28;20639;-74
2024/04/05 01:57:22;;;;;;;3.72;1.20;;;13.30;99.90;;;;;;5089713;28;20414;-74
2024/04/05 02:00:08;;;;;;;4.68;1.63;;;13.30;99.90;;;;;;5063290;28;20476;-74
2024/04/05 02:02:54;;;;;;;4.72;1.95;;;13.30;99.90;;;;;;5062964;28;20036;-75
2024/04/05 02:05:40;;;;;;;4.63;1.40;;;13.40;99.90;;;;;;5054044;28;20029;-75
2024/04/05 02:08:26;;;;;;;4.28;1.40;;;13.40;99.90;;;;;;5067333;28;20532;-75
2024/04/05 02:11:12;;;;;;;3.03;1.40;;;13.40;99.90;;;;;;5053722;28;20119;-76
2024/04/05 02:13:58;;;;;;;5.20;1.30;;;13.40;99.90;;;;;;5053538;28;20112;-75
2024/04/05 02:16:44;;;;;;;2.22;1.38;;;13.40;99.90;;;;;;5058943;28;20045;-75
2024/04/05 02:19:30;;;;;;;3.22;1.65;;;13.50;99.90;;;;;;5049531;28;20055;-75
2024/04/05 02:22:17;;;;;;;4.00;1.73;;;13.40;99.90;;;;;;5053346;28;20036;-75
2024/04/05 02:25:03;;;;;;;7.55;1.85;;;13.50;99.90;;;;;;5066800;28;20044;-76
2024/04/05 02:27:49;;;;;;;2.65;1.25;;;13.50;99.90;;;;;;5066204;28;20029;-76
2024/04/05 02:30:38;;;;;;;5.63;2.17;;;13.50;99.90;;;;;;5057271;28;20487;-76
2024/04/05 02:33:24;;;;;;;5.13;1.38;;;13.60;99.90;;;;;;5063786;28;20400;-77
2024/04/05 02:36:10;;;;;;;2.58;1.73;;;13.50;99.90;;;;;;5065999;28;20037;-76
2024/04/05 02:38:56;;;;;;;4.50;1.30;;;13.60;99.90;;;;;;5058039;28;20086;-76
2024/04/05 02:41:45;;;;;;;5.43;1.42;;;13.60;99.90;;;;;;5060634;28;20037;-76
2024/04/05 02:44:31;;;;;;;6.82;2.00;;;13.60;99.90;;;;;;5064377;28;20047;-76
2024/04/05 02:47:17;;;;;;;2.33;1.25;;;13.60;99.90;;;;;;5072376;28;20036;-75
2024/04/05 02:50:03;;;;;;;4.18;2.05;;;13.60;99.90;;;;;;5054604;28;20040;-76
2024/04/05 02:52:49;;;;;;;3.15;1.40;;;13.60;99.90;;;;;;5054257;28;20469;-75
2024/04/05 02:55:35;;;;;;;4.82;1.50;;;13.60;99.90;;;;;;5067173;28;20086;-73
2024/04/05 02:58:21;;;;;;;4.70;1.40;;;13.60;99.90;;;;;;5061482;28;20102;-73
2024/04/05 03:01:07;;;;;;;5.43;1.88;;;13.60;99.90;;;;;;5060601;28;20078;-73
2024/04/05 03:03:53;;;;;;;4.30;1.63;;;13.60;99.90;;;;;;5051750;28;20052;-74
2024/04/05 03:06:39;;;;;;;4.07;2.00;;;13.70;99.90;;;;;;5055977;28;20413;-73
2024/04/05 03:09:25;;;;;;;4.22;1.65;;;13.70;99.90;;;;;;5052463;28;20111;-74
2024/04/05 03:12:10;;;;;;;4.43;1.63;;;13.60;99.90;;;;;;5065601;28;21122;-75
2024/04/05 03:14:56;;;;;;;6.72;2.22;;;13.60;99.90;;;;;;5061232;28;20377;-75
2024/04/05 03:17:43;;;;;;;2.90;1.50;;;13.60;99.90;;;;;;5067741;28;20056;-74
2024/04/05 03:20:29;;;;;;;3.78;1.90;;;13.60;99.90;;;;;;5053799;28;20108;-75
2024/04/05 03:23:15;;;;;;;5.63;2.00;;;13.60;99.90;;;;;;5069066;28;20039;-75
2024/04/05 03:26:02;;;;;;;3.17;1.30;;;13.50;99.90;;;;;;5070228;28;20033;-75
2024/04/05 03:28:47;;;;;;;3.72;1.90;;;13.50;99.90;;;;;;5062033;28;20075;-75
2024/04/05 03:31:35;;;;;;;6.95;2.00;;;13.50;99.90;;;;;;5071810;28;20031;-75
2024/04/05 03:34:20;;;;;;;6.85;1.73;;;13.50;99.90;;;;;;5050481;28;20047;-75
2024/04/05 03:37:06;;;;;;;3.95;1.83;;;13.50;99.90;;;;;;5050221;28;20040;-75
2024/04/05 03:39:53;;;;;;;4.57;1.77;;;13.50;99.90;;;;;;5063683;28;20029;-75
2024/04/05 03:42:38;;;;;;;7.03;2.13;;;13.50;99.90;;;;;;5052416;28;20181;-76
2024/04/05 03:45:25;;;;;;;2.72;1.70;;;13.50;99.90;;;;;;5054254;28;20028;-76
2024/04/05 03:48:11;;;;;;;3.05;1.58;;;13.50;99.90;;;;;;5052453;28;20037;-75
2024/04/05 03:50:57;;;;;;;5.72;1.83;;;13.50;99.90;;;;;;5054075;28;20115;-75
2024/04/05 03:53:43;;;;;;;6.40;2.50;;;13.50;99.90;;;;;;5069670;28;20032;-75
2024/04/05 03:56:29;;;;;;;6.93;1.70;;;13.50;99.90;;;;;;5059264;28;20029;-75
2024/04/05 03:59:15;;;;;;;6.47;1.88;;;13.50;99.90;;;;;;5071312;28;20065;-75
2024/04/05 04:02:01;;;;;;;5.07;1.90;;;13.50;99.90;;;;;;5060394;28;20032;-80
2024/04/05 04:04:47;;;;;;;4.75;1.60;;;13.50;99.90;;;;;;5070887;28;20047;-80
2024/04/05 04:07:33;;;;;;;3.67;1.60;;;13.50;99.90;;;;;;5066930;28;20377;-81
2024/04/05 04:10:20;;;;;;;7.13;1.90;;;13.50;99.90;;;;;;5064614;28;20041;-81
2024/04/05 04:13:06;;;;;;;3.25;1.50;;;13.50;99.90;;;;;;5071445;28;20029;-81
2024/04/05 04:15:51;;;;;;;4.68;1.73;;;13.50;99.90;;;;;;5060111;28;20276;-80
2024/04/05 04:18:37;;;;;;;2.85;1.55;;;13.50;99.90;;;;;;5052517;28;20048;-82
2024/04/05 04:21:24;;;;;;;3.83;2.03;;;13.50;99.90;;;;;;5050203;28;20040;-80
2024/04/05 04:24:11;;;;;;;4.30;1.50;;;13.50;99.90;;;;;;5053291;28;20116;-82
2024/04/05 04:26:57;;;;;;;5.95;1.50;;;13.50;99.90;;;;;;5065775;28;20076;-73
2024/04/05 04:29:43;;;;;;;3.50;1.83;;;13.50;99.90;;;;;;5060841;28;20452;-71
2024/04/05 04:32:29;;;;;;;4.32;1.70;;;13.40;99.90;;;;;;5068392;28;20079;-72
2024/04/05 04:35:15;;;;;;;4.47;1.65;;;13.40;99.90;;;;;;5061169;28;20032;-73
2024/04/05 04:38:01;;;;;;;2.97;1.35;;;13.40;99.90;;;;;;5066417;28;20076;-72
2024/04/05 04:40:47;;;;;;;3.83;1.25;;;13.40;99.90;;;;;;5053781;28;20029;-70
2024/04/05 04:43:33;;;;;;;4.53;1.70;;;13.40;99.90;;;;;;5063506;28;20036;-72
2024/04/05 04:46:19;;;;;;;5.70;1.45;;;13.40;99.90;;;;;;5055903;28;20060;-70
2024/04/05 04:49:05;;;;;;;3.60;1.70;;;13.40;99.90;;;;;;5051355;28;20491;-72
2024/04/05 04:51:54;;;;;;;3.58;1.60;;;13.30;99.90;;;;;;5049885;28;20498;-70
2024/04/05 04:54:40;;;;;;;5.45;2.42;;;13.30;99.90;;;;;;5055080;28;20033;-70
2024/04/05 04:57:26;;;;;;;5.63;1.63;;;13.30;99.90;;;;;;5051822;28;20047;-70
2024/04/05 05:00:14;;;;;;;4.22;1.42;;;13.30;99.90;;;;;;5059423;28;20484;-70
2024/04/05 05:03:00;;;;;;;4.40;1.52;;;13.30;99.90;;;;;;5052125;28;20037;-70
2024/04/05 05:05:46;;;;;;;10.05;2.13;;;13.30;99.90;;;;;;5062083;28;20028;-70
2024/04/05 05:08:32;;;;;;;4.65;1.77;;;13.30;99.90;;;;;;5071380;28;20044;-70
2024/04/05 05:11:17;;;;;;;4.40;1.70;;;13.30;99.90;;;;;;5052919;28;20061;-71
2024/04/05 05:14:03;;;;;;;4.00;1.65;;;13.20;99.90;;;;;;5063986;28;20036;-70
2024/04/05 05:16:49;;;;;;;4.97;1.65;;;13.20;99.90;;;;;;5060629;28;20045;-71
2024/04/05 05:19:35;;;;;;;5.88;1.80;;;13.20;99.90;;;;;;5064396;28;20090;-70
2024/04/05 05:22:21;;;;;;;4.63;1.80;;;13.20;99.90;;;;;;5039071;28;20085;-71
2024/04/05 05:25:08;;;;;;;6.13;1.90;;;13.30;99.90;;;;;;5033279;28;20060;-71
2024/04/05 05:27:54;;;;;;;4.07;1.70;;;13.30;99.90;;;;;;5034846;28;20037;-70
2024/04/05 05:30:40;;;;;;;6.30;2.20;;;13.30;99.90;;;;;;5029967;28;20032;-74
2024/04/05 05:33:26;;;;;;;5.78;1.92;;;13.30;99.90;;;;;;5040124;28;20025;-73
2024/04/05 05:36:13;;;;;;;4.43;1.73;;;13.30;99.90;;;;;;5038566;28;20041;-74
2024/04/05 05:39:00;;;;;;;6.88;2.25;;;13.30;99.90;;;;;;5046408;28;20523;-74
2024/04/05 05:41:46;;;;;;;7.15;2.20;;;13.30;99.90;;;;;;5031112;28;20442;-73
2024/04/05 05:44:32;;;;;;;5.45;1.80;;;13.30;99.90;;;;;;5032987;28;20057;-74
2024/04/05 05:47:19;;;;;;;5.20;2.42;;;13.40;99.90;;;;;;5045177;28;20029;-74
2024/04/05 05:50:05;;;;;;;4.47;2.05;;;13.40;99.90;;;;;;5042864;28;20041;-73
2024/04/05 05:52:51;;;;;;;6.15;1.65;;;13.50;99.90;;;;;;5048826;28;20029;-73
2024/04/05 05:55:37;;;;;;;5.32;2.15;;;13.50;99.90;;;;;;5016725;28;20037;-73
2024/04/05 05:58:24;;;;;;;6.57;2.05;;;13.50;99.90;;;;;;5031034;28;20045;-73
2024/04/05 06:01:11;;;;;;;7.78;2.55;;;13.60;99.90;;;;;;5021008;28;20025;-73
2024/04/05 06:03:57;;;;;;;6.25;1.98;;;13.60;99.90;;;;;;5032693;28;20087;-73
2024/04/05 06:06:43;;;;;;;6.50;2.00;;;13.60;99.90;;;;;;5030090;28;20033;-73
2024/04/05 06:09:29;;;;;;;6.10;1.98;;;13.70;99.90;;;;;;5038369;28;20036;-73
2024/04/05 06:12:15;;;;;;;5.00;2.50;;;13.70;99.90;;;;;;5047836;28;20029;-73
2024/04/05 06:15:01;;;;;;;7.97;2.22;;;13.80;99.90;;;;;;5041317;28;20037;-73
2024/04/05 06:17:47;;;;;;;6.65;2.83;;;13.90;99.90;;;;;;5050506;28;20053;-72
2024/04/05 06:20:33;;;;;;;9.80;2.75;;;14.00;99.90;;;;;;5059872;28;20387;-72
2024/04/05 06:23:19;;;;;;;12.70;2.65;;;14.10;99.90;;;;;;5059611;28;20049;-73
2024/04/05 06:26:05;;;;;;;5.72;2.28;;;14.10;99.90;;;;;;5065916;28;20082;-72
2024/04/05 06:28:51;;;;;;;6.70;2.08;;;14.20;99.90;;;;;;5053346;28;20044;-72
2024/04/05 06:31:37;;;;;;;4.57;1.95;;;14.20;99.90;;;;;;5056929;28;20472;-70
2024/04/05 06:34:23;;;;;;;6.22;2.00;;;14.30;99.90;;;;;;5060327;28;21641;-69
2024/04/05 06:37:09;;;;;;;4.75;2.30;;;14.40;99.90;;;;;;5051857;28;20051;-69
2024/04/05 06:39:55;;;;;;;6.57;2.45;;;14.40;99.90;;;;;;5061220;28;20029;-69
2024/04/05 06:42:42;;;;;;;7.72;3.20;;;14.50;99.90;;;;;;5056906;28;20029;-69
2024/04/05 06:45:28;;;;;;;5.00;2.10;;;14.60;99.90;;;;;;5054387;28;20489;-70
2024/04/05 06:48:14;;;;;;;6.07;2.95;;;14.70;99.90;;;;;;5058950;28;20043;-70
2024/04/05 06:51:00;;;;;;;7.28;2.55;;;14.70;99.90;;;;;;5065613;28;20476;-66
2024/04/05 06:53:46;;;;;;;5.30;2.15;;;14.80;99.90;;;;;;5056284;28;20135;-70
2024/04/05 06:56:32;;;;;;;5.22;1.88;;;14.90;99.90;;;;;;5054385;28;20051;-68
2024/04/05 06:59:18;;;;;;;8.10;2.50;;;14.90;99.90;;;;;;5067410;28;20032;-68
2024/04/05 07:02:04;;;;;;;5.70;2.05;;;15.00;99.90;;;;;;5063546;28;20033;-68
2024/04/05 07:04:50;;;;;;;15.18;3.33;;;15.10;99.90;;;;;;5063708;28;20044;-68
2024/04/05 07:07:37;;;;;;;5.82;2.70;;;15.10;99.80;;;;;;5058640;28;20029;-68
2024/04/05 07:10:23;;;;;;;6.75;2.70;;;15.20;99.80;;;;;;5061077;28;20036;-68
2024/04/05 07:13:09;;;;;;;6.53;2.08;;;15.30;99.70;;;;;;5056364;28;20036;-66
2024/04/05 07:15:55;;;;;;;5.45;1.85;;;15.40;99.70;;;;;;5061912;28;20119;-66
2024/04/05 07:18:41;;;;;;;6.35;2.00;;;15.40;99.50;;;;;;5054062;28;20053;-65
2024/04/05 07:21:27;;;;;;;8.75;3.38;;;15.50;99.40;;;;;;5069205;28;20504;-67
2024/04/05 07:24:14;;;;;;;7.68;2.65;;;15.60;99.30;;;;;;5055217;28;20029;-67
2024/04/05 07:26:59;;;;;;;3.97;1.83;;;15.70;99.20;;;;;;5067031;28;20116;-66
2024/04/05 07:29:46;;;;;;;5.75;2.00;;;15.70;99.20;;;;;;5058840;28;20037;-66
2024/04/05 07:32:32;;;;;;;5.90;2.00;;;15.80;99.10;;;;;;5052124;28;20544;-68
2024/04/05 07:35:20;;;;;;;7.63;2.03;;;15.80;98.80;;;;;;5059273;28;20473;-67
2024/04/05 07:38:06;;;;;;;4.32;2.00;;;15.90;98.90;;;;;;5069688;28;20049;-67
2024/04/05 07:40:52;;;;;;;5.25;2.08;;;15.90;98.80;;;;;;5065285;28;20033;-66
2024/04/05 07:43:38;;;;;;;5.20;2.00;;;16.00;98.80;;;;;;5072635;28;20064;-67
2024/04/05 07:46:24;;;;;;;6.13;3.08;;;16.10;98.70;;;;;;5058020;28;20048;-67
2024/04/05 07:49:09;;;;;;;7.78;1.98;;;16.10;98.60;;;;;;5066095;28;20036;-67
2024/04/05 07:51:55;;;;;;;8.52;2.67;;;16.20;98.50;;;;;;5062893;28;20025;-66
2024/04/05 07:54:45;;;;;;;6.60;2.22;;;16.30;98.50;;;;;;5054561;28;20040;-66
2024/04/05 07:57:31;;;;;;;7.18;2.55;;;16.40;98.50;;;;;;5062959;28;20472;-67
2024/04/05 08:00:20;;;;;;;4.93;2.20;;;16.40;98.40;;;;;;5066739;28;20036;-66
2024/04/05 08:03:06;;;;;;;6.97;2.45;;;16.50;98.30;;;;;;5064647;28;20481;-67
2024/04/05 08:05:52;;;;;;;9.15;1.92;;;16.60;98.20;;;;;;5059923;28;20033;-67
2024/04/05 08:08:39;;;;;;;6.70;2.47;;;16.70;98.10;;;;;;5056073;28;20067;-67
2024/04/05 08:11:25;;;;;;;7.03;2.20;;;16.70;98.10;;;;;;5045572;28;20404;-66
2024/04/05 08:14:11;;;;;;;8.13;2.67;;;16.80;98.10;;;;;;5061548;28;20596;-66
2024/04/05 08:16:57;;;;;;;8.23;2.20;;;16.90;97.90;;;;;;5063694;28;20043;-70
2024/04/05 08:19:43;;;;;;;5.90;2.13;;;17.00;97.80;;;;;;5063909;28;20147;-67
2024/04/05 08:22:29;;;;;;;5.57;1.83;;;17.10;97.50;;;;;;5065417;28;20579;-67
2024/04/05 08:25:15;;;;;;;6.95;2.33;;;17.30;97.40;;;;;;5057597;28;20380;-65
2024/04/05 08:28:02;;;;;;;5.97;2.40;;;17.40;97.30;;;;;;5069414;28;20032;-64
2024/04/05 08:30:52;;;;;;;8.20;2.25;;;17.50;97.20;;;;;;5069974;28;20438;-64
2024/04/05 08:33:40;;;;;;;8.98;1.80;;;17.60;97.00;;;;;;5062907;28;20029;-65
2024/04/05 08:36:27;;;;;;;12.88;2.38;;;17.60;96.80;;;;;;5056680;28;20472;-68
2024/04/05 08:39:13;;;;;;;9.27;2.70;;;17.70;96.60;;;;;;5062431;28;20090;-67
2024/04/05 08:42:12;;;;;;;7.15;2.20;;;17.80;96.30;;;;;;5056154;28;20037;-68
2024/04/05 08:44:58;;;;;;;8.85;2.38;;;17.80;96.20;;;;;;5065891;28;20130;-72
2024/04/05 08:47:47;;;;;;;8.82;2.75;;;17.90;96.10;;;;;;5062311;28;20090;-71
2024/04/05 08:50:34;;;;;;;5.43;2.05;;;17.90;95.90;;;;;;5062445;28;20028;-72
2024/04/05 08:53:20;;;;;;;5.30;2.20;;;17.90;95.90;;;;;;5057495;28;20037;-70
2024/04/05 08:56:07;;;;;;;8.70;3.17;;;18.00;95.80;;;;;;5061495;28;20058;-67
2024/04/05 08:58:53;;;;;;;6.00;1.95;;;18.10;95.80;;;;;;5062479;28;20044;-69
2024/04/05 09:01:44;;;;;;;10.50;2.40;;;18.10;95.70;;;;;;5066756;28;20048;-73
2024/04/05 09:04:30;;;;;;;5.35;1.95;;;18.20;95.60;;;;;;5065924;28;20021;-71
2024/04/05 09:07:16;;;;;;;14.60;2.80;;;18.30;95.60;;;;;;5056261;28;20530;-74
2024/04/05 09:10:11;;;;;;;10.32;2.28;;;18.30;95.70;;;;;;5062955;28;20066;-74
2024/04/05 09:12:58;;;;;;;;;;;18.40;95.60;;;;;;5061992;28;20037;-74
2024/04/05 09:15:50;;;;;;;5.32;2.30;;;18.50;96.00;;;;;;5067468;28;20288;-74
2024/04/05 09:18:36;;;;;;;7.32;1.95;;;18.60;95.50;;;;;;5062045;28;20135;-74
2024/04/05 09:21:22;;;;;;;7.97;2.33;;;18.70;95.40;;;;;;5061681;28;20035;-74
2024/04/05 09:24:08;;;;;;;9.85;2.58;;;18.70;95.30;;;;;;5060183;28;20041;-73
2024/04/05 09:27:06;;;;;;;7.63;3.03;;;18.80;95.30;;;;;;5059110;28;20032;-73
2024/04/05 09:30:03;;;;;;;10.18;2.67;;;18.80;95.20;;;;;;5069342;28;20075;-74
2024/04/05 09:32:49;;;;;;;5.00;2.30;;;18.90;95.30;;;;;;5060799;28;20075;-74
2024/04/05 09:35:38;;;;;;;11.93;3.80;;;19.00;95.20;;;;;;5051713;28;20083;-74
2024/04/05 09:38:25;;;;;;;5.18;2.17;;;19.00;95.00;;;;;;5065407;28;20083;-74
2024/04/05 09:41:13;;;;;;;5.20;2.15;;;19.10;95.00;;;;;;5065248;28;20024;-73
2024/04/05 09:44:02;;;;;;;7.03;2.20;;;19.10;95.00;;;;;;5056862;28;20116;-73
2024/04/05 09:46:48;;;;;;;5.35;2.05;;;19.10;95.00;;;;;;5059169;28;20041;-75
2024/04/05 09:49:34;;;;;;;7.60;2.45;;;19.10;94.90;;;;;;5052529;28;20037;-75
2024/04/05 09:52:26;;;;;;;6.05;2.22;;;19.10;95.00;;;;;;5054414;28;20062;-75
2024/04/05 09:55:13;;;;;;;4.13;1.75;;;19.10;94.90;;;;;;5070015;28;20025;-74
2024/04/05 09:57:59;;;;;;;9.32;2.35;;;19.10;94.90;;;;;;5061935;28;20040;-74
2024/04/05 10:00:46;;;;;;;7.10;2.13;;;19.10;95.10;;;;;;5062558;28;20029;-75
2024/04/05 10:03:32;;;;;;;4.22;1.92;;;19.10;95.00;;;;;;5057395;28;20033;-74
2024/04/05 10:06:18;;;;;;;4.43;1.83;;;19.10;95.00;;;;;;5063325;28;20063;-74
2024/04/05 10:09:24;;;;;;;7.57;2.13;;;19.10;95.20;;;;;;5056810;28;20033;-75
2024/04/05 10:12:16;;;;;;;7.28;2.42;;;19.10;95.20;;;;;;5056996;28;20120;-74
2024/04/05 10:15:02;;;;;;;6.05;2.50;;;19.20;95.20;;;;;;5054940;28;20123;-74
2024/04/05 10:17:56;;;;;;;6.95;1.95;;;19.20;95.20;;;;;;5064840;28;20063;-75
2024/04/05 10:20:43;;;;;;;;;;;19.30;95.20;;;;;;5066664;28;20488;-74
2024/04/05 10:23:31;;;;;;;5.60;2.10;;;19.40;95.50;;;;;;5057264;28;19919;-75
2024/04/05 10:26:17;;;;;;;4.25;2.45;;;19.50;95.50;;;;;;5048908;28;20123;-74
2024/04/05 10:29:05;;;;;;;8.35;1.83;;;19.60;95.20;;;;;;5061138;28;20059;-74
2024/04/05 10:32:09;;;;;;;4.55;2.42;;;19.70;95.20;;;;;;5066065;28;20035;-74
2024/04/05 10:35:08;;;;;;;5.45;1.80;;;19.80;95.00;;;;;;5058582;28;20037;-74
2024/04/05 10:37:58;;;;;;;6.28;2.00;;;19.90;94.80;;;;;;5061471;28;20440;-74
2024/04/05 10:40:44;;;;;;;3.30;2.00;;;20.00;94.70;;;;;;5047873;28;20033;-74
2024/04/05 10:43:30;;;;;;;6.28;1.50;;;20.00;94.80;;;;;;5064546;28;20029;-74
2024/04/05 10:46:17;;;;;;;5.32;1.92;;;20.00;94.70;;;;;;5060377;28;20029;-74
2024/04/05 10:49:04;;;;;;;7.45;2.20;;;20.00;94.60;;;;;;5065014;28;20066;-74
2024/04/05 10:51:58;;;;;;;4.35;2.03;;;20.00;94.70;;;;;;5063005;28;20032;-74
2024/04/05 10:54:44;;;;;;;4.82;2.17;;;20.10;94.40;;;;;;5055126;28;20040;-73
2024/04/05 10:57:30;;;;;;;8.23;1.77;;;20.10;94.40;;;;;;5055303;28;20073;-73
2024/04/05 11:00:18;;;;;;;7.43;1.60;;;20.20;94.20;;;;;;5061624;28;20028;-74
2024/04/05 11:03:14;;;;;;;7.75;2.45;;;20.20;94.10;;;;;;5058010;28;20033;-73
2024/04/05 11:06:04;;;;;;;3.28;1.73;;;20.20;94.10;;;;;;5066040;28;20039;-74
2024/04/05 11:08:51;;;;;;;6.43;1.98;;;20.30;94.00;;;;;;5058196;28;20040;-73
2024/04/05 11:11:37;;;;;;;4.88;1.88;;;20.30;94.00;;;;;;5065240;28;20475;-73
2024/04/05 11:14:23;;;;;;;4.53;1.70;;;20.30;94.00;;;;;;5064359;28;20033;-74
2024/04/05 11:17:09;;;;;;;4.03;1.70;;;20.30;94.00;;;;;;5069715;28;20079;-73
2024/04/05 11:20:05;;;;;;;3.83;2.20;;;20.30;93.80;;;;;;5065886;28;20044;-73
2024/04/05 11:22:56;;;;;;;4.75;1.67;;;20.20;93.70;;;;;;5072296;28;20040;-74
2024/04/05 11:25:55;;;;;;;9.93;2.15;;;20.20;93.80;;;;;;5061268;28;20047;-74
2024/04/05 11:28:44;;;;;;;4.85;1.90;;;20.20;93.70;;;;;;5062009;28;20032;-78
2024/04/05 11:31:30;;;;;;;4.35;1.48;;;20.20;93.60;;;;;;5068425;28;20521;-77
2024/04/05 11:34:17;;;;;;;5.30;2.47;;;20.30;93.50;;;;;;5060764;28;20036;-77
2024/04/05 11:37:03;;;;;;;7.15;2.38;;;20.30;93.60;;;;;;5063099;28;20044;-77
2024/04/05 11:39:49;;;;;;;6.55;2.53;;;20.30;93.70;;;;;;5067226;28;20059;-77
2024/04/05 11:42:36;;;;;;;5.80;1.65;;;20.30;93.60;;;;;;5066708;28;20435;-77
2024/04/05 11:45:23;;;;;;;5.93;1.88;;;20.30;93.60;;;;;;5063176;28;20028;-71
2024/04/05 11:48:10;;;;;;;5.75;1.70;;;20.20;93.50;;;;;;5065305;28;20048;-68
2024/04/05 11:50:56;;;;;;;4.13;2.08;;;20.20;93.60;;;;;;5071188;28;20089;-69
2024/04/05 11:53:42;;;;;;;4.25;1.92;;;20.10;93.60;;;;;;5051740;28;20071;-69
2024/04/05 11:56:28;;;;;;;5.00;2.78;;;20.10;93.60;;;;;;5066747;28;20055;-69
2024/04/05 11:59:14;;;;;;;4.53;1.63;;;20.10;93.70;;;;;;5071644;28;20489;-68
2024/04/05 12:02:00;;;;;;;3.75;2.10;;;20.10;93.80;;;;;;5062427;28;20063;-68
2024/04/05 12:04:47;;;;;;;5.07;2.15;;;20.20;93.60;;;;;;5065915;28;20159;-67
2024/04/05 12:07:33;;;;;;;6.82;1.60;;;20.30;93.80;;;;;;5060736;28;20115;-68
2024/04/05 12:10:19;;;;;;;4.85;2.00;;;20.40;93.70;;;;;;5068847;28;20040;-68
2024/04/05 12:13:05;;;;;;;4.50;1.90;;;20.40;93.70;;;;;;5060648;28;20115;-69
2024/04/05 12:15:51;;;;;;;8.90;2.25;;;20.40;93.60;;;;;;5066375;28;20035;-69
2024/04/05 12:18:38;;;;;;;2.97;1.58;;;20.40;93.50;;;;;;5062171;28;20048;-69
2024/04/05 12:21:24;;;;;;;3.15;1.55;;;20.40;93.50;;;;;;5071764;28;20040;-69
2024/04/05 12:24:10;;;;;;;3.92;1.77;;;20.40;93.50;;;;;;5064714;28;20044;-69
2024/04/05 12:26:57;;;;;;;7.00;1.52;;;20.40;93.40;;;;;;5070753;28;20044;-68
2024/04/05 12:29:47;;;;;;;5.00;1.88;;;20.40;93.30;;;;;;5065534;28;20032;-69
2024/04/05 12:32:33;;;;;;;4.68;1.75;;;20.40;93.20;;;;;;5052782;28;20036;-69
2024/04/05 12:35:19;;;;;;;5.03;1.50;;;20.50;93.40;;;;;;5063479;28;20540;-69
2024/04/05 12:38:10;;;;;;;4.43;1.95;;;20.50;93.30;;;;;;5068302;28;20041;-69
2024/04/05 12:40:56;;;;;;;5.97;1.67;;;20.50;93.30;;;;;;5062005;28;20079;-69
2024/04/05 12:43:42;;;;;;;2.60;1.50;;;20.50;93.40;;;;;;5052020;28;20067;-69
2024/04/05 12:46:28;;;;;;;3.65;1.63;;;20.50;93.20;;;;;;5054014;28;20059;-68
2024/04/05 12:49:14;;;;;;;4.80;1.58;;;20.60;93.30;;;;;;5052699;28;20033;-68
2024/04/05 12:52:01;;;;;;;3.22;1.55;;;20.70;93.30;;;;;;5064928;28;20071;-67
2024/04/05 12:54:47;;;;;;;5.72;1.98;;;20.80;93.60;;;;;;5062711;28;20119;-68
2024/04/05 12:57:33;;;;;;;6.95;2.03;;;20.90;93.20;;;;;;5061668;28;20098;-68
2024/04/05 13:00:20;;;;;;;4.88;1.48;;;20.90;93.00;;;;;;5070262;28;20152;-67
2024/04/05 13:03:06;;;;;;;3.30;1.40;;;20.90;92.90;;;;;;5064767;28;20037;-68
2024/04/05 13:05:52;;;;;;;5.10;1.65;;;20.90;92.90;;;;;;5066708;28;20029;-68
2024/04/05 13:08:40;;;;;;;3.53;1.48;;;20.90;92.80;;;;;;5062483;28;20029;-68
2024/04/05 13:11:26;;;;;;;3.30;1.88;;;21.00;92.70;;;;;;5064971;28;20131;-67
2024/04/05 13:14:11;;;;;;;4.72;1.58;;;21.00;92.60;;;;;;5054694;28;20040;-68
2024/04/05 13:16:57;;;;;;;4.28;1.50;;;21.00;92.50;;;;;;5069989;28;20062;-67
2024/04/05 13:19:49;;;;;;;3.20;1.05;;;21.00;92.40;;;;;;5061268;28;20427;-67
2024/04/05 13:22:34;;;;;;;2.63;1.30;;;21.00;92.40;;;;;;5063016;28;20416;-68
2024/04/05 13:25:20;;;;;;;3.17;1.30;;;20.90;92.30;;;;;;5064176;28;20476;-67
2024/04/05 13:28:07;;;;;;;3.03;1.50;;;20.90;92.40;;;;;;5056182;28;20041;-68
2024/04/05 13:30:57;;;;;;;3.55;1.42;;;20.80;92.40;;;;;;5057249;28;20059;-68
2024/04/05 13:33:44;;;;;;;3.25;1.55;;;20.80;92.50;;;;;;5057569;28;20028;-68
2024/04/05 13:36:30;;;;;;;5.03;2.30;;;20.70;92.70;;;;;;5064719;28;20032;-68
2024/04/05 13:39:16;;;;;;;4.43;2.00;;;20.60;92.80;;;;;;5059780;28;20091;-68
2024/04/05 13:42:03;;;;;;;1.83;1.27;;;20.60;93.10;;;;;;5062863;28;20108;-68
2024/04/05 13:44:53;;;;;;;4.28;1.58;;;20.60;93.40;;;;;;5066077;28;20477;-68
2024/04/05 13:47:39;;;;;;;10.02;2.22;;;20.50;93.50;;;;;;5058516;28;20035;-67
2024/04/05 13:50:25;;;;;;;5.88;1.60;;;20.50;93.50;;;;;;5063864;28;20070;-66
2024/04/05 13:53:11;;;;;;;7.90;1.60;;;20.50;93.70;;;;;;5064726;28;20059;-68
2024/04/05 13:55:57;;;;;;;2.58;1.58;;;20.40;93.80;;;;;;5061181;28;20034;-67
2024/04/05 13:58:42;;;;;;;5.40;2.17;;;20.50;93.90;;;;;;5053498;28;20052;-67
2024/04/05 14:01:28;;;;;;;6.15;1.52;;;20.50;93.80;;;;;;5055268;28;20112;-68
2024/04/05 14:04:14;;;;;;;5.38;2.25;;;20.40;93.80;;;;;;5055479;28;20040;-67
2024/04/05 14:07:00;;;;;;;3.03;2.00;;;20.40;93.90;;;;;;5057329;28;20036;-67
2024/04/05 14:09:46;;;;;;;2.72;1.70;;;20.40;93.90;;;;;;5058805;28;20269;-67
2024/04/05 14:12:33;;;;;;;3.28;1.40;;;20.40;93.90;;;;;;5058591;28;20028;-67
2024/04/05 14:15:19;;;;;;;4.72;2.33;;;20.40;93.90;;;;;;5068017;28;20472;-67
2024/04/05 14:18:06;;;;;;;2.25;1.25;;;20.40;94.00;;;;;;5067009;28;20045;-68
2024/04/05 14:20:52;;;;;;;3.15;1.88;;;20.40;94.00;;;;;;5063525;28;20036;-67
2024/04/05 14:23:38;;;;;;;3.03;1.95;;;20.40;94.10;;;;;;5063569;28;20502;-68
2024/04/05 14:26:23;;;;;;;3.35;1.50;;;20.40;94.10;;;;;;5050532;28;20502;-67
2024/04/05 14:29:10;;;;;;;6.28;1.98;;;20.40;94.10;;;;;;5055082;28;20072;-66